« 美ら島エアーフェスタ2018【2日目B.I.編】 那覇空港 2018/12/9 sun | トップページ | 見送 那覇空港 2018/12/10 mon »

2018/12/24

美ら島エアーフェスタ2018【2日目見送編】 那覇空港 2018/12/9 sun

二日間に渡る美ら島エアーフェスタ。ブルーが終れば、撤収作業が始まります。

ROAH 090700Z 06011KT 010V110 9999 -RA FEW015 BKN035 20/16 Q1020 RMK 2CU015 6SC035 A3013

20181209_roah_400ja8998

JA8998 うちなー翼もお仕事に復帰へ

20181209_roah_401m5101

5101 パパさんはお隣のネイビーエリアにお帰り

20181209_roah_402u623054

62-3004 救難格へお帰り

20181209_roah_403m5070

5070 P-3C VP-5 T70 実任務は続いています。

20181209_roah_404fvc

航空局の消防車は当直交代かな

ROAH 090730Z 05010KT 020V100 9999 -RA FEW015 SCT025 BKN035 20/16 Q1020 RMK 1CU015 3CU025 6SC035 A3013

20181209_roah_405c681203

68-1203 KC-2 403SQ C03

20181209_roah_406ja06rk

JTA44 ROAH-RJGG JA06RK B737-8Q3

20181209_roah_407c281001

28-1001 C-1FTB ADTW M50

20181209_roah_408f078428

07-8428 F-4EJk 302SQ 白尾白さんは見納めかな

20181209_roah_409bi

蛍の光に導かれて、ブルーさんにおわかれ。

|

« 美ら島エアーフェスタ2018【2日目B.I.編】 那覇空港 2018/12/9 sun | トップページ | 見送 那覇空港 2018/12/10 mon »

BI」カテゴリの記事

那覇空港」カテゴリの記事

コメント

コメントを書く



(ウェブ上には掲載しません)


コメントは記事投稿者が公開するまで表示されません。



トラックバック


この記事へのトラックバック一覧です: 美ら島エアーフェスタ2018【2日目見送編】 那覇空港 2018/12/9 sun:

« 美ら島エアーフェスタ2018【2日目B.I.編】 那覇空港 2018/12/9 sun | トップページ | 見送 那覇空港 2018/12/10 mon »